Time;durP1;ratioP1;P1;durP2;ratioP2;P2;SDS_P1;SDS_P2;PMS_P1;PMS_P2;Temp;Humidity;BMP_temperature;BMP_pressure;BME280_temperature;BME280_humidity;BME280_pressure;Samples;Min_cycle;Max_cycle;Signal;HPM_P1;HPM_P2
2022/07/04 00:00:40;;;;;;;0.28;0.28;;;;;;;23.25;39.68;100821.03;5054798;28;20122;-68
2022/07/04 00:03:06;;;;;;;0.40;0.40;;;;;;;23.24;40.00;100817.47;5054821;28;20021;-68
2022/07/04 00:05:31;;;;;;;0.32;0.32;;;;;;;23.24;39.89;100824.84;5054753;28;20086;-67
2022/07/04 00:07:57;;;;;;;0.40;0.40;;;;;;;23.24;39.84;100819.38;5054686;28;20502;-67
2022/07/04 00:10:22;;;;;;;0.30;0.30;;;;;;;23.24;39.61;100820.19;5054357;28;20079;-68
2022/07/04 00:12:47;;;;;;;0.30;0.30;;;;;;;23.25;39.81;100815.59;5054615;28;20036;-67
2022/07/04 00:15:13;;;;;;;0.30;0.30;;;;;;;23.22;39.76;100816.09;5054567;28;20514;-68
2022/07/04 00:17:38;;;;;;;0.40;0.40;;;;;;;23.21;39.79;100814.44;5054475;28;20028;-68
2022/07/04 00:20:05;;;;;;;0.50;0.50;;;;;;;23.20;39.68;100810.91;5054231;28;20025;-68
2022/07/04 00:22:31;;;;;;;0.30;0.30;;;;;;;23.21;39.52;100814.44;5054199;28;20485;-67
2022/07/04 00:24:56;;;;;;;0.40;0.40;;;;;;;23.22;39.40;100818.84;5054141;28;20045;-67
2022/07/04 00:27:21;;;;;;;0.32;0.30;;;;;;;23.21;39.34;100817.19;5054001;28;20044;-67
2022/07/04 00:29:47;;;;;;;0.38;0.38;;;;;;;23.20;39.34;100813.63;5054120;28;20021;-67
2022/07/04 00:32:12;;;;;;;0.43;0.43;;;;;;;23.21;39.54;100814.44;5053937;28;20044;-67
2022/07/04 00:34:38;;;;;;;0.30;0.30;;;;;;;23.20;39.27;100819.09;5054159;28;20025;-67
2022/07/04 00:37:03;;;;;;;0.35;0.35;;;;;;;23.21;39.12;100814.44;5054871;28;20028;-67
2022/07/04 00:39:29;;;;;;;0.40;0.40;;;;;;;23.21;39.17;100820.72;5054259;28;20032;-68
2022/07/04 00:41:54;;;;;;;0.40;0.40;;;;;;;23.21;39.34;100815.25;5054098;28;20032;-68
2022/07/04 00:44:20;;;;;;;0.40;0.40;;;;;;;23.20;39.10;100821.81;5054021;28;20025;-68
2022/07/04 00:46:46;;;;;;;0.50;0.50;;;;;;;23.18;39.07;100825.88;5053605;28;20472;-68
2022/07/04 00:49:12;;;;;;;0.40;0.40;;;;;;;23.21;39.30;100822.63;5052863;28;20040;-67
2022/07/04 00:51:39;;;;;;;0.38;0.38;;;;;;;23.21;39.12;100828.09;5071068;28;20540;-67
2022/07/04 00:54:06;;;;;;;0.38;0.38;;;;;;;23.19;39.00;100828.34;5072266;28;20024;-67
2022/07/04 00:56:31;;;;;;;0.30;0.30;;;;;;;23.19;39.14;100822.88;5073550;28;20028;-67
2022/07/04 00:58:58;;;;;;;0.40;0.40;;;;;;;23.21;39.07;100828.91;5073389;28;20033;-67
2022/07/04 01:01:24;;;;;;;0.40;0.40;;;;;;;23.20;39.22;100824.53;5073731;28;20375;-68
2022/07/04 01:03:49;;;;;;;0.50;0.50;;;;;;;23.19;39.03;100824.81;5073633;28;20025;-67
2022/07/04 01:06:15;;;;;;;0.40;0.40;;;;;;;23.18;38.95;100825.88;5073632;28;20458;-67
2022/07/04 01:08:42;;;;;;;0.40;0.40;;;;;;;23.19;38.87;100832.97;5073546;28;20382;-67
2022/07/04 01:11:08;;;;;;;0.30;0.30;;;;;;;23.18;39.18;100831.31;5073318;28;20035;-67
2022/07/04 01:13:33;;;;;;;0.40;0.40;;;;;;;23.18;39.11;100826.72;5073774;28;20028;-68
2022/07/04 01:15:59;;;;;;;0.40;0.40;;;;;;;23.18;38.73;100825.88;5073551;28;20020;-67
2022/07/04 01:18:24;;;;;;;0.40;0.40;;;;;;;23.19;38.76;100828.34;5073442;28;20386;-67
2022/07/04 01:20:49;;;;;;;0.43;0.43;;;;;;;23.18;38.71;100828.59;5073574;28;20082;-67
2022/07/04 01:23:15;;;;;;;0.57;0.40;;;;;;;23.18;38.97;100825.88;5073465;28;20086;-67
2022/07/04 01:25:41;;;;;;;0.40;0.40;;;;;;;23.17;38.86;100830.50;5072979;28;20437;-68
2022/07/04 01:28:07;;;;;;;0.40;0.40;;;;;;;23.18;38.66;100834.06;5073037;28;20036;-67
2022/07/04 01:30:32;;;;;;;0.40;0.40;;;;;;;23.17;38.52;100827.78;5073073;28;20028;-67
2022/07/04 01:32:57;;;;;;;0.40;0.40;;;;;;;23.16;38.50;100828.88;5072920;28;20029;-67
2022/07/04 01:35:23;;;;;;;0.40;0.40;;;;;;;23.17;38.53;100835.16;5073870;28;20132;-67
2022/07/04 01:37:49;;;;;;;0.38;0.38;;;;;;;23.19;38.48;100838.44;5073182;28;20031;-67
2022/07/04 01:40:14;;;;;;;0.30;0.30;;;;;;;23.18;38.66;100836.78;5073085;28;20024;-68
2022/07/04 01:42:40;;;;;;;0.40;0.40;;;;;;;23.18;38.60;100842.22;5073008;28;20025;-67
2022/07/04 01:45:06;;;;;;;0.30;0.30;;;;;;;23.16;38.67;100849.84;5073925;28;20031;-67
2022/07/04 01:47:32;;;;;;;0.30;0.30;;;;;;;23.16;38.54;100847.13;5073504;28;20020;-68
2022/07/04 01:49:57;;;;;;;0.40;0.40;;;;;;;23.16;38.66;100845.25;5070340;28;20032;-68
2022/07/04 01:52:23;;;;;;;0.40;0.40;;;;;;;23.16;38.49;100850.69;5053092;28;20467;-68
2022/07/04 01:54:48;;;;;;;1.05;0.40;;;;;;;23.16;38.66;100833.50;5053286;28;20052;-68
2022/07/04 01:57:14;;;;;;;0.40;0.40;;;;;;;23.14;38.50;100833.75;5053485;28;20474;-67
2022/07/04 02:02:23;;;;;;;0.30;0.30;;;;;;;23.16;38.66;100834.34;5057299;28;20374;-68
2022/07/04 02:04:49;;;;;;;0.40;0.40;;;;;;;23.16;38.50;100838.94;5057404;28;20033;-67
2022/07/04 02:07:14;;;;;;;0.43;0.43;;;;;;;23.16;38.43;100834.34;5057116;28;20083;-67
2022/07/04 02:09:40;;;;;;;0.40;0.40;;;;;;;23.16;38.37;100836.22;5056882;28;20404;-67
2022/07/04 02:14:50;;;;;;;0.45;0.45;;;;;;;23.19;38.25;100832.97;5056886;28;20091;-67
2022/07/04 02:17:15;;;;;;;0.45;0.45;;;;;;;23.18;38.56;100831.31;5056948;28;20033;-67
2022/07/04 02:19:40;;;;;;;0.47;0.47;;;;;;;23.17;38.33;100832.44;5056816;28;20367;-67
2022/07/04 02:22:06;;;;;;;0.35;0.35;;;;;;;23.17;38.29;100833.25;5056724;28;20482;-67
2022/07/04 02:24:31;;;;;;;0.30;0.30;;;;;;;23.18;38.67;100834.91;5057090;28;20373;-67
2022/07/04 02:26:57;;;;;;;0.50;0.50;;;;;;;23.16;38.46;100836.22;5056598;28;20463;-67
2022/07/04 02:29:22;;;;;;;0.50;0.50;;;;;;;23.17;38.58;100835.16;5056505;28;20383;-67
2022/07/04 02:31:48;;;;;;;0.30;0.30;;;;;;;23.16;38.60;100823.44;5056543;28;20408;-68
2022/07/04 02:34:13;;;;;;;0.57;0.50;;;;;;;23.17;38.71;100824.25;5056496;28;20372;-68
2022/07/04 02:36:38;;;;;;;0.40;0.40;;;;;;;23.15;38.46;100824.50;5056119;28;20025;-67
2022/07/04 02:39:04;;;;;;;0.40;0.40;;;;;;;23.15;38.64;100827.22;5054921;28;20084;-68
2022/07/04 02:41:30;;;;;;;0.50;0.50;;;;;;;23.15;38.55;100832.69;5056399;28;20356;-67
2022/07/04 02:43:56;;;;;;;0.40;0.40;;;;;;;23.15;38.54;100835.41;5055893;28;20055;-67
2022/07/04 02:46:22;;;;;;;0.32;0.32;;;;;;;23.14;38.73;100831.03;5055998;28;20071;-67
2022/07/04 02:48:47;;;;;;;0.50;0.50;;;;;;;23.15;38.59;100831.88;5055839;28;20036;-67
2022/07/04 02:51:13;;;;;;;0.60;0.60;;;;;;;23.15;38.61;100831.88;5068491;28;20021;-67
2022/07/04 02:53:38;;;;;;;0.40;0.40;;;;;;;23.16;38.82;100830.78;5076106;28;20031;-67
2022/07/04 02:56:04;;;;;;;0.43;0.43;;;;;;;23.15;38.65;100832.69;5075798;28;20025;-68
2022/07/04 02:58:31;;;;;;;0.70;0.43;;;;;;;23.14;38.88;100819.31;5074715;28;20029;-68
2022/07/04 03:00:56;;;;;;;0.50;0.50;;;;;;;23.13;38.87;100828.56;5075938;28;20258;-67
2022/07/04 03:03:22;;;;;;;0.77;0.40;;;;;;;23.15;38.79;100832.69;5074709;28;20053;-67
2022/07/04 03:05:47;;;;;;;0.40;0.40;;;;;;;23.14;38.90;100820.13;5075944;28;20520;-68
2022/07/04 03:08:13;;;;;;;0.50;0.50;;;;;;;23.16;39.06;100830.78;5075606;28;20433;-68
2022/07/04 03:10:38;;;;;;;0.47;0.43;;;;;;;23.15;38.86;100835.41;5075557;28;20099;-68
2022/07/04 03:13:03;;;;;;;0.40;0.40;;;;;;;23.14;38.94;100824.75;5074551;28;20025;-67
2022/07/04 03:15:29;;;;;;;0.55;0.55;;;;;;;23.16;39.24;100822.59;5075693;28;20024;-67
2022/07/04 03:17:54;;;;;;;0.50;0.50;;;;;;;23.15;39.29;100826.41;5075589;28;20032;-67
2022/07/04 03:20:20;;;;;;;0.50;0.50;;;;;;;23.15;39.33;100821.78;5075334;28;20021;-67
2022/07/04 03:22:45;;;;;;;0.45;0.45;;;;;;;23.15;39.33;100821.78;5075630;28;20035;-67
2022/07/04 03:25:11;;;;;;;1.00;0.50;;;;;;;23.15;39.24;100821.78;5075035;28;20494;-68
2022/07/04 03:27:36;;;;;;;0.45;0.45;;;;;;;23.16;39.31;100822.59;5075471;28;20025;-68
2022/07/04 03:30:03;;;;;;;0.50;0.50;;;;;;;23.16;39.44;100822.59;5075670;28;20448;-68
2022/07/04 03:32:28;;;;;;;0.50;0.50;;;;;;;23.14;39.73;100814.66;5075054;28;20028;-67
2022/07/04 03:34:54;;;;;;;0.45;0.45;;;;;;;23.15;39.57;100819.06;5074956;28;20085;-67
2022/07/04 03:37:19;;;;;;;0.80;0.35;;;;;;;23.16;39.83;100811.69;5075408;28;20035;-67
2022/07/04 03:39:44;;;;;;;0.50;0.50;;;;;;;23.17;39.68;100814.16;5075121;28;20406;-68
2022/07/04 03:42:10;;;;;;;0.40;0.40;;;;;;;23.16;39.72;100812.53;5075176;28;20463;-67
2022/07/04 03:44:35;;;;;;;0.40;0.40;;;;;;;23.15;39.96;100805.41;5075148;28;20029;-67
2022/07/04 03:47:01;;;;;;;0.55;0.55;;;;;;;23.16;39.93;100801.63;5074754;28;20062;-67
2022/07/04 03:49:26;;;;;;;0.50;0.50;;;;;;;23.16;40.44;100803.50;5073649;28;20029;-68
2022/07/04 03:51:52;;;;;;;0.47;0.47;;;;;;;23.16;40.30;100807.06;5058213;28;20021;-68
2022/07/04 03:54:17;;;;;;;0.50;0.50;;;;;;;23.16;40.35;100804.34;5054928;28;20418;-67
2022/07/04 03:56:43;;;;;;;0.40;0.40;;;;;;;23.16;40.62;100796.16;5055242;28;20021;-67
2022/07/04 03:59:08;;;;;;;0.43;0.43;;;;;;;23.19;40.48;100795.63;5054795;28;20047;-67
2022/07/04 04:01:33;;;;;;;0.30;0.30;;;;;;;23.20;40.75;100799.19;5054521;28;20498;-67
2022/07/04 04:06:43;;;;;;;0.43;0.43;;;;;;;23.23;40.82;100801.38;5054774;28;20063;-67
2022/07/04 04:09:13;;;;;;;0.40;0.40;;;;;;;23.25;40.57;100793.78;5054662;28;20033;-67
2022/07/04 04:11:38;;;;;;;0.40;0.40;;;;;;;23.26;40.71;100800.84;5054668;28;20114;-67
2022/07/04 04:14:07;;;;;;;0.30;0.30;;;;;;;23.28;40.49;100800.59;5054398;28;20435;-67
2022/07/04 04:16:32;;;;;;;0.40;0.40;;;;;;;23.27;40.97;100794.31;5054638;28;20029;-67
2022/07/04 04:18:58;;;;;;;0.32;0.32;;;;;;;23.29;40.89;100800.34;5054158;28;20520;-67
2022/07/04 04:21:23;;;;;;;0.35;0.35;;;;;;;23.28;41.10;100797.88;5054555;28;20032;-68
2022/07/04 04:23:48;;;;;;;0.85;0.50;;;;;;;23.29;41.00;100794.88;5054376;28;20021;-68
2022/07/04 04:26:14;;;;;;;0.40;0.40;;;;;;;23.30;40.75;100795.69;5054730;28;20431;-67
2022/07/04 04:28:39;;;;;;;0.40;0.40;;;;;;;23.33;40.70;100798.72;5054089;28;20025;-68
2022/07/04 04:31:05;;;;;;;0.50;0.50;;;;;;;23.32;40.74;100798.97;5054828;28;20033;-68
2022/07/04 04:33:30;;;;;;;0.40;0.40;;;;;;;23.32;40.75;100804.44;5054068;28;20028;-68
2022/07/04 04:35:56;;;;;;;0.40;0.40;;;;;;;23.32;40.67;100802.53;5053994;28;20029;-67
2022/07/04 04:38:21;;;;;;;0.32;0.32;;;;;;;23.33;40.61;100797.91;5054099;28;20021;-67
2022/07/04 04:40:47;;;;;;;0.40;0.40;;;;;;;23.34;40.63;100808.56;5053898;28;20029;-67
2022/07/04 04:43:12;;;;;;;0.40;0.40;;;;;;;23.37;40.45;100807.19;5054193;28;20115;-67
2022/07/04 04:45:37;;;;;;;0.38;0.38;;;;;;;23.36;40.27;100809.09;5053897;28;20021;-67
2022/07/04 04:48:03;;;;;;;0.43;0.43;;;;;;;23.37;40.40;100799.00;5052436;28;20044;-67
2022/07/04 04:50:28;;;;;;;0.35;0.30;;;;;;;23.36;40.23;100800.91;5058124;28;20020;-67
2022/07/04 04:52:54;;;;;;;0.30;0.30;;;;;;;23.35;40.13;100801.19;5073597;28;20111;-67
2022/07/04 04:55:19;;;;;;;0.30;0.30;;;;;;;23.35;40.02;100801.19;5073664;28;20032;-67
2022/07/04 04:57:45;;;;;;;0.30;0.30;;;;;;;23.32;40.11;100791.63;5073613;28;20070;-67
2022/07/04 05:00:11;;;;;;;0.40;0.30;;;;;;;23.33;39.89;100801.44;5073834;28;20020;-67
2022/07/04 05:02:37;;;;;;;0.45;0.40;;;;;;;23.37;39.92;100801.72;5073835;28;20526;-67
2022/07/04 05:05:03;;;;;;;0.40;0.40;;;;;;;23.39;39.93;100797.69;5073607;28;20024;-67
2022/07/04 05:07:28;;;;;;;0.40;0.30;;;;;;;23.42;39.83;100802.59;5074514;28;20024;-67
2022/07/04 05:09:58;;;;;;;0.35;0.35;;;;;;;23.43;39.83;100798.78;5072219;28;20105;-67
2022/07/04 05:12:24;;;;;;;0.40;0.40;;;;;;;23.46;39.72;100794.72;5073239;28;20031;-68
2022/07/04 05:14:50;;;;;;;0.30;0.30;;;;;;;23.51;39.79;100796.63;5074333;28;20028;-67
2022/07/04 05:17:15;;;;;;;0.47;0.47;;;;;;;23.52;39.73;100790.09;5073598;28;20027;-67
2022/07/04 05:19:41;;;;;;;0.30;0.30;;;;;;;23.52;39.70;100790.09;5073453;28;20025;-67
2022/07/04 05:22:06;;;;;;;0.30;0.30;;;;;;;23.53;39.51;100794.50;5073137;28;20032;-68
2022/07/04 05:24:32;;;;;;;0.30;0.30;;;;;;;23.56;39.69;100791.22;5073622;28;20047;-69
2022/07/04 05:26:57;;;;;;;0.32;0.32;;;;;;;23.56;39.45;100793.94;5073200;28;20020;-67
2022/07/04 05:29:22;;;;;;;0.40;0.40;;;;;;;23.58;39.94;100797.25;5073476;28;20032;-67
2022/07/04 05:31:48;;;;;;;0.40;0.40;;;;;;;23.57;39.51;100795.59;5073354;28;20024;-67
2022/07/04 05:34:13;;;;;;;1.27;0.63;;;;;;;23.63;39.46;100784.44;5073246;28;20463;-67
2022/07/04 05:36:39;;;;;;;0.40;0.40;;;;;;;23.62;39.24;100788.25;5072335;28;20070;-67
2022/07/04 05:39:04;;;;;;;0.52;0.40;;;;;;;23.60;39.76;100784.16;5073126;28;20021;-67
2022/07/04 05:41:30;;;;;;;0.40;0.40;;;;;;;23.61;39.76;100785.78;5073108;28;20463;-67
2022/07/04 05:43:55;;;;;;;0.40;0.40;;;;;;;23.67;39.67;100790.19;5073171;28;20475;-67
2022/07/04 05:46:20;;;;;;;0.45;0.30;;;;;;;23.73;39.24;100791.88;5072624;28;20410;-67
2022/07/04 05:48:46;;;;;;;0.40;0.40;;;;;;;23.64;39.42;100785.25;5073022;28;20032;-68
2022/07/04 05:51:11;;;;;;;0.40;0.40;;;;;;;23.66;39.56;100785.00;5063138;28;20083;-68
2022/07/04 05:53:37;;;;;;;0.85;0.45;;;;;;;23.68;39.34;100775.47;5051876;28;20037;-67
2022/07/04 05:56:02;;;;;;;0.50;0.50;;;;;;;23.67;39.57;100776.53;5052862;28;20494;-67
2022/07/04 05:58:28;;;;;;;0.40;0.40;;;;;;;23.71;39.22;100777.63;5052802;28;20447;-67
2022/07/04 06:00:57;;;;;;;0.40;0.40;;;;;;;23.68;39.34;100771.91;5052700;28;20025;-67
2022/07/04 06:03:22;;;;;;;0.40;0.40;;;;;;;23.71;39.39;100777.63;5034812;28;20037;-67
2022/07/04 06:05:49;;;;;;;0.40;0.40;;;;;;;23.66;39.32;100771.34;5053328;28;20087;-67
2022/07/04 06:08:14;;;;;;;0.57;0.30;;;;;;;23.64;39.23;100779.78;5052464;28;20048;-67
2022/07/04 06:10:40;;;;;;;0.40;0.40;;;;;;;23.65;39.53;100775.19;5052607;28;20040;-68
2022/07/04 06:13:05;;;;;;;0.40;0.40;;;;;;;23.70;39.57;100775.19;5052171;28;20017;-68
2022/07/04 06:15:31;;;;;;;0.40;0.40;;;;;;;23.66;39.53;100776.81;5052266;28;20025;-68
2022/07/04 06:17:56;;;;;;;0.40;0.40;;;;;;;23.70;39.11;100776.03;5051420;28;20029;-68
2022/07/04 06:20:22;;;;;;;2.33;1.33;;;;;;;23.62;39.45;100771.06;5052794;28;20435;-68
2022/07/04 06:22:48;;;;;;;7.43;2.83;;;;;;;23.72;39.01;100775.75;5052374;28;20024;-68
2022/07/04 06:25:16;;;;;;;5.13;2.88;;;;;;;23.77;39.36;100768.41;5051085;28;20037;-68
2022/07/04 06:27:42;;;;;;;3.78;1.58;;;;;;;23.85;39.09;100766.28;5052635;28;20051;-68
2022/07/04 06:30:08;;;;;;;1.42;1.00;;;;;;;23.82;39.14;100764.91;5052577;28;20029;-68
2022/07/04 06:32:53;;;;;;;0.68;0.68;;;;;;;23.87;39.18;100766.81;5052304;28;20108;-68
2022/07/04 06:38:07;;;;;;;1.52;0.90;;;;;;;23.94;38.89;100767.38;5052819;28;20055;-67
2022/07/04 06:40:33;;;;;;;1.02;0.80;;;;;;;23.93;39.17;100763.03;5052932;28;20460;-67
2022/07/04 06:42:59;;;;;;;2.60;1.38;;;;;;;23.90;39.08;100755.38;5052594;28;20098;-67
2022/07/04 06:45:24;;;;;;;2.05;1.20;;;;;;;23.95;38.76;100752.66;5053716;28;20028;-67
2022/07/04 06:47:50;;;;;;;1.50;1.00;;;;;;;23.91;39.30;100759.75;5054612;28;20108;-66
2022/07/04 06:50:15;;;;;;;2.38;1.13;;;;;;;24.03;38.68;100757.59;5059294;28;20027;-68
2022/07/04 06:52:41;;;;;;;1.15;0.90;;;;;;;24.07;39.00;100749.69;5076140;28;20481;-67
2022/07/04 06:55:07;;;;;;;1.83;1.10;;;;;;;24.09;38.67;100750.25;5076171;28;20032;-68
2022/07/04 06:57:32;;;;;;;3.38;1.50;;;;;;;23.92;39.21;100743.13;5076196;28;20017;-68
2022/07/04 06:59:58;;;;;;;3.15;1.50;;;;;;;24.02;38.84;100750.50;5076061;28;20063;-68
2022/07/04 07:02:23;;;;;;;2.95;1.48;;;;;;;24.01;38.93;100762.53;5075996;28;20036;-68
2022/07/04 07:04:48;;;;;;;5.93;2.58;;;;;;;24.09;38.83;100752.97;5075759;28;20021;-68
2022/07/04 07:07:14;;;;;;;8.50;4.07;;;;;;;24.13;38.69;100745.91;5075838;28;20025;-68
2022/07/04 07:09:39;;;;;;;5.53;2.75;;;;;;;24.13;38.91;100743.16;5075257;28;20111;-67
2022/07/04 07:12:05;;;;;;;6.65;3.20;;;;;;;24.19;38.39;100742.88;5075940;28;20028;-67
2022/07/04 07:14:30;;;;;;;6.88;2.92;;;;;;;24.21;38.55;100747.28;5075989;28;20021;-67
2022/07/04 07:16:56;;;;;;;5.10;2.67;;;;;;;24.25;38.42;100740.16;5075117;28;20529;-66
2022/07/04 07:19:21;;;;;;;5.13;2.53;;;;;;;24.18;38.42;100744.00;5075154;28;20024;-69
2022/07/04 07:21:47;;;;;;;5.07;2.58;;;;;;;24.21;38.33;100734.44;5075708;28;20082;-68
2022/07/04 07:24:12;;;;;;;3.50;1.50;;;;;;;24.15;37.94;100735.53;5075142;28;20395;-67
2022/07/04 07:26:37;;;;;;;10.13;4.20;;;;;;;24.18;38.29;100741.25;5075676;28;20082;-68
2022/07/04 07:29:03;;;;;;;8.38;3.10;;;;;;;24.23;38.03;100731.44;5074481;28;20451;-66
2022/07/04 07:31:28;;;;;;;6.47;2.67;;;;;;;24.24;38.23;100725.69;5075984;28;20035;-68
2022/07/04 07:33:54;;;;;;;5.43;2.50;;;;;;;24.24;37.67;100717.50;5075724;28;20043;-68
2022/07/04 07:36:19;;;;;;;4.55;2.10;;;;;;;24.21;37.74;100715.31;5075923;28;20023;-67
2022/07/04 07:38:45;;;;;;;2.78;1.63;;;;;;;24.12;38.23;100725.94;5076668;28;20462;-67
2022/07/04 07:41:10;;;;;;;4.82;1.45;;;;;;;24.18;37.65;100719.41;5077053;28;20103;-66
2022/07/04 07:43:36;;;;;;;2.03;1.30;;;;;;;24.23;37.39;100721.31;5075447;28;20020;-67
2022/07/04 07:46:04;;;;;;;2.63;1.27;;;;;;;24.25;37.34;100713.69;5075579;28;20485;-67
2022/07/04 07:48:30;;;;;;;1.77;1.10;;;;;;;24.29;37.39;100722.16;5075796;28;20024;-68
2022/07/04 07:50:55;;;;;;;2.33;1.20;;;;;;;24.24;36.59;100722.16;5070035;28;20032;-67
2022/07/04 07:53:21;;;;;;;5.60;2.42;;;;;;;24.25;37.42;100719.16;5054714;28;20025;-67
2022/07/04 07:55:46;;;;;;;15.23;5.72;;;;;;;24.28;36.94;100726.78;5053468;28;20033;-67
2022/07/04 07:58:12;;;;;;;8.50;3.50;;;;;;;24.19;37.52;100710.13;5054916;28;20029;-67
2022/07/04 08:00:37;;;;;;;7.53;3.63;;;;;;;24.27;36.91;100710.69;5054641;28;20463;-67
2022/07/04 08:05:47;;;;;;;6.25;2.33;;;;;;;24.33;36.21;100709.59;5055220;28;20040;-67
2022/07/04 08:08:12;;;;;;;5.47;2.10;;;;;;;24.33;36.70;100709.59;5054596;28;20029;-68
2022/07/04 08:10:37;;;;;;;4.65;1.80;;;;;;;24.35;36.33;100704.69;5054372;28;20078;-67
2022/07/04 08:13:04;;;;;;;2.45;1.50;;;;;;;24.30;36.60;100693.75;5054365;28;20066;-67
2022/07/04 08:15:30;;;;;;;5.30;1.92;;;;;;;24.25;36.69;100696.47;5054379;28;20045;-66
2022/07/04 08:17:55;;;;;;;4.25;1.98;;;;;;;24.09;36.47;100696.44;5054354;28;20460;-67
2022/07/04 08:20:20;;;;;;;4.47;1.92;;;;;;;24.11;36.41;100694.28;5054221;28;20085;-67
2022/07/04 08:22:46;;;;;;;2.17;1.10;;;;;;;24.18;36.58;100692.13;5053966;28;20028;-67
2022/07/04 08:25:14;;;;;;;1.80;1.05;;;;;;;24.24;36.41;100690.19;5053809;28;20048;-67
2022/07/04 08:27:40;;;;;;;1.05;0.88;;;;;;;24.18;36.14;100689.38;5054671;28;20029;-67
2022/07/04 08:30:06;;;;;;;0.88;0.70;;;;;;;24.24;36.28;100687.47;5057650;28;20044;-68
2022/07/04 08:32:31;;;;;;;1.17;0.90;;;;;;;24.20;35.95;100678.19;5054096;28;20036;-67
2022/07/04 08:34:57;;;;;;;1.38;0.80;;;;;;;24.09;36.36;100682.78;5054208;28;20024;-67
2022/07/04 08:37:23;;;;;;;1.83;0.88;;;;;;;24.29;36.04;100682.00;5054574;28;20375;-68
2022/07/04 08:39:48;;;;;;;2.00;1.00;;;;;;;24.33;36.00;100682.28;5053761;28;20048;-67
2022/07/04 08:42:16;;;;;;;1.75;1.00;;;;;;;24.39;35.81;100681.22;5054755;28;20359;-67
2022/07/04 08:44:42;;;;;;;1.23;0.80;;;;;;;24.27;36.21;100677.94;5053953;28;20036;-67
2022/07/04 08:47:09;;;;;;;1.65;0.77;;;;;;;24.26;35.97;100684.47;5035931;28;20025;-67
2022/07/04 08:49:34;;;;;;;0.70;0.70;;;;;;;24.24;35.94;100679.28;5052356;28;20360;-67
2022/07/04 08:52:03;;;;;;;0.90;0.70;;;;;;;24.31;35.91;100668.09;5067132;28;20027;-67
2022/07/04 08:59:58;;;;;;;1.45;0.68;;;;;;;24.27;35.83;100677.94;5073695;28;20039;-67
2022/07/04 09:02:24;;;;;;;0.73;0.60;;;;;;;24.17;36.01;100676.81;5074006;28;20033;-67
2022/07/04 09:04:49;;;;;;;0.90;0.50;;;;;;;24.24;36.07;100668.34;5073880;28;20020;-67
2022/07/04 09:07:15;;;;;;;0.40;0.40;;;;;;;24.25;35.51;100652.78;5073539;28;20036;-68
2022/07/04 09:09:40;;;;;;;2.03;0.90;;;;;;;24.27;35.93;100658.81;5072919;28;20028;-68
2022/07/04 09:12:07;;;;;;;3.15;1.02;;;;;;;24.28;35.65;100655.78;5072739;28;20032;-67
2022/07/04 09:14:33;;;;;;;2.35;0.90;;;;;;;24.34;35.75;100659.34;5073781;28;20139;-68
2022/07/04 09:16:58;;;;;;;1.42;1.00;;;;;;;24.24;35.60;100651.97;5073028;28;20024;-68
2022/07/04 09:19:24;;;;;;;1.85;0.95;;;;;;;24.26;35.84;100646.22;5071890;28;20032;-68
2022/07/04 09:21:49;;;;;;;1.70;0.98;;;;;;;24.30;35.62;100650.06;5071570;28;20028;-66
2022/07/04 09:24:15;;;;;;;0.80;0.70;;;;;;;24.25;35.92;100655.50;5072894;28;20078;-66
2022/07/04 09:26:49;;;;;;;1.23;0.70;;;;;;;24.33;35.54;100644.03;5073277;28;20025;-66
2022/07/04 09:29:15;;;;;;;1.02;0.70;;;;;;;24.29;35.45;100642.97;5072953;28;20031;-68
2022/07/04 09:31:40;;;;;;;1.05;0.73;;;;;;;24.31;35.34;100640.78;5071749;28;20028;-66
2022/07/04 09:34:06;;;;;;;2.97;0.90;;;;;;;24.38;35.51;100636.66;5073458;28;20029;-66
2022/07/04 09:36:39;;;;;;;0.50;0.50;;;;;;;24.36;35.20;100632.59;5073099;28;20464;-68
2022/07/04 09:39:18;;;;;;;0.70;0.60;;;;;;;24.30;35.29;100634.50;5072836;28;20085;-67
2022/07/04 09:42:03;;;;;;;0.85;0.40;;;;;;;24.32;35.32;100626.03;5073407;28;20214;-67
2022/07/04 09:44:49;;;;;;;1.10;0.70;;;;;;;24.31;34.93;100629.84;5072958;28;20031;-67
2022/07/04 09:47:28;;;;;;;0.88;0.65;;;;;;;24.30;35.07;100622.75;5072537;28;20032;-69
2022/07/04 09:50:09;;;;;;;0.40;0.40;;;;;;;24.29;35.15;100621.94;5073203;28;20040;-67
2022/07/04 09:52:47;;;;;;;1.77;0.68;;;;;;;24.28;34.88;100616.75;5055227;28;20032;-67
2022/07/04 09:55:13;;;;;;;1.00;0.70;;;;;;;24.28;35.16;100616.75;5052970;28;20021;-67
2022/07/04 09:57:44;;;;;;;2.08;0.73;;;;;;;24.32;35.11;100621.38;5051905;28;20021;-67
2022/07/04 10:00:17;;;;;;;0.80;0.50;;;;;;;24.34;35.08;100616.47;5052753;28;20021;-65
2022/07/04 10:02:42;;;;;;;0.85;0.50;;;;;;;24.37;34.99;100617.84;5053624;28;20028;-67
2022/07/04 10:05:07;;;;;;;1.15;0.50;;;;;;;24.34;34.89;100612.91;5053146;28;20032;-67
2022/07/04 10:07:37;;;;;;;0.60;0.60;;;;;;;24.37;34.96;100606.91;5053129;28;20025;-67
2022/07/04 10:10:35;;;;;;;2.50;1.35;;;;;;;24.38;34.70;100614.00;5053042;28;20036;-67
2022/07/04 10:13:03;;;;;;;4.10;1.77;;;;;;;24.34;34.53;100607.47;5053395;28;20047;-68
2022/07/04 10:15:28;;;;;;;4.07;2.13;;;;;;;24.34;34.46;100610.19;5054027;28;20101;-68
2022/07/04 10:17:54;;;;;;;13.52;5.15;;;;;;;24.35;34.32;100609.09;5053701;28;20368;-67
2022/07/04 10:20:19;;;;;;;13.32;5.75;;;;;;;24.42;34.37;100604.16;5053467;28;20078;-67
2022/07/04 10:22:45;;;;;;;10.85;4.47;;;;;;;24.39;34.23;100604.72;5055518;28;20025;-67
2022/07/04 10:25:10;;;;;;;8.02;3.22;;;;;;;24.40;34.17;100598.16;5054940;28;20053;-67
2022/07/04 10:27:36;;;;;;;5.95;2.28;;;;;;;24.39;33.67;100591.06;5055475;28;20415;-66
2022/07/04 10:30:04;;;;;;;4.55;2.20;;;;;;;24.39;34.37;100596.53;5055115;28;20507;-66
2022/07/04 10:32:29;;;;;;;4.85;1.80;;;;;;;24.37;34.31;100587.78;5056076;28;20110;-66
2022/07/04 10:34:55;;;;;;;2.88;1.30;;;;;;;24.38;34.03;100587.50;5038125;28;20116;-66
2022/07/04 10:37:21;;;;;;;3.78;1.58;;;;;;;24.40;33.95;100580.94;5056670;28;20047;-67
2022/07/04 10:39:50;;;;;;;3.22;1.50;;;;;;;24.38;34.37;100581.22;5056350;28;20021;-67
2022/07/04 10:42:24;;;;;;;3.63;1.40;;;;;;;24.42;34.32;100582.31;5038811;28;20047;-66
2022/07/04 10:44:53;;;;;;;2.90;1.30;;;;;;;24.41;34.42;100580.69;5056616;28;20116;-65
2022/07/04 10:47:26;;;;;;;2.00;1.00;;;;;;;24.44;34.13;100574.66;5054567;28;20274;-67
2022/07/04 10:49:52;;;;;;;2.80;1.08;;;;;;;24.46;34.25;100577.13;5056216;28;20044;-67
2022/07/04 10:52:18;;;;;;;1.05;0.73;;;;;;;24.43;34.09;100567.56;5070581;28;20471;-68
2022/07/04 10:54:43;;;;;;;1.65;0.93;;;;;;;24.44;34.08;100573.84;5076047;28;20421;-66
2022/07/04 10:57:22;;;;;;;1.67;1.00;;;;;;;24.46;34.26;100564.28;5076127;28;20048;-66
2022/07/04 10:59:54;;;;;;;0.90;0.65;;;;;;;24.48;34.03;100569.47;5075873;28;20025;-66
2022/07/04 11:02:19;;;;;;;0.70;0.60;;;;;;;24.51;34.15;100564.28;5076183;28;20029;-66
2022/07/04 11:04:50;;;;;;;1.50;0.77;;;;;;;24.50;34.04;100562.63;5075352;28;20050;-68
2022/07/04 11:07:15;;;;;;;1.92;0.75;;;;;;;24.50;34.06;100557.16;5076310;28;20040;-66
2022/07/04 11:09:42;;;;;;;2.00;0.80;;;;;;;24.53;33.91;100555.81;5075597;28;20392;-66
2022/07/04 11:12:08;;;;;;;1.63;0.70;;;;;;;24.49;33.78;100561.00;5075665;28;20025;-66
2022/07/04 11:14:41;;;;;;;0.88;0.60;;;;;;;24.50;34.00;100553.63;5075559;28;20032;-66
2022/07/04 11:17:34;;;;;;;2.20;0.65;;;;;;;24.51;33.95;100550.63;5075368;28;20471;-67
2022/07/04 11:20:00;;;;;;;1.88;0.70;;;;;;;24.53;34.15;100544.88;5075209;28;20062;-67
2022/07/04 11:22:26;;;;;;;2.47;1.25;;;;;;;24.52;33.89;100544.03;5075407;28;20029;-66
2022/07/04 11:24:51;;;;;;;9.00;4.70;;;;;;;24.62;33.80;100545.16;5074827;28;20591;-67
2022/07/04 11:27:16;;;;;;;7.63;3.80;;;;;;;24.55;33.99;100535.31;5075068;28;20031;-68
2022/07/04 11:29:55;;;;;;;4.75;2.65;;;;;;;24.47;33.87;100530.38;5075038;28;20036;-67
2022/07/04 11:32:21;;;;;;;4.13;1.90;;;;;;;24.51;33.71;100531.50;5075268;28;20434;-66
2022/07/04 11:34:47;;;;;;;3.58;1.85;;;;;;;24.57;33.55;100520.56;5074484;28;20047;-66
2022/07/04 11:37:12;;;;;;;2.85;1.52;;;;;;;24.57;33.96;100517.84;5074891;28;20031;-67
2022/07/04 11:39:38;;;;;;;2.55;1.40;;;;;;;24.60;33.52;100518.09;5075004;28;20024;-67